Sacramento International Airport
KSMF : now visible

Airfield :











YOU CAN JOIN US ON...

 
LOGIN :

Register | Disclaimer

   EN    FR    IT 

 









Legend :    VFR   Marginal VFR   IFR   Intensive IFR   Very Intensive IFR
Visi :
Ceiling :
>= 8 km
>= 3000ft
5 to 8 km
1000 to 3000 ft
1500m to 5 km
500 to 1000 ft
800 to 1500m
200 to 500 ft
< 800m
< 200 ft
Symbols :   Thunderstorms  Fog  Heavy snow  Heavy precipitations  Wind > 20 kt







- Airport Elevation : 27 ft
- IATA code : SMF


KSMF - Sacramento International

CURRENT METAR :
  • 211053Z 17010KT 10SM BKN070 OVC090 12/09 A2988 RMK AO2 SLP116 T01170094

EXPIRED METARs :
  • 210953Z 18012KT 10SM FEW020 BKN065 BKN090 12/09 A2988 RMK AO2 SLP117 T01170094
  • 210853Z 18010G16KT 10SM SCT020 BKN070 BKN090 BKN200 12/09 A2989 RMK AO2 SLP120 T01170089 58006

TAF KSMF
Valid from the 21 at 12:00 until the 22 at 12:00 UTC


211137Z 2112/2212 17012KT P6SM VCSH SCT025 BKN060
TEMPO 2114/2118 -SHRA BKN025
FM211800 20015G25KT P6SM -SHRA SCT025 OVC040
PROB30 2122/2202 3SM -TSRAGS BKN025CB
FM220300 19007KT P6SM BKN060
KZOA FIR / North America



MET'MAP, your aeronautical weather chart ! - Copyright ORBIFLY December 2007 - Disclaimer

ORBIFLY MET'MAP TEAM :

Programming & Development : Alexandra Zaïnal
Concept & Development : Baudouin d'Aumeries
Co-Development & Prog : Marc-Olivier Méhu
Technical & hardware support : Manuel Goepfert

Contact : metmap@orbifly.com




SOURCES & CREDITS :

   NOAA       Earth
Advisory